sensor_id;sensor_type;location;lat;lon;timestamp;temperature;humidity
38860;DHT22;24609;48.316;16.174;2024-02-26T00:02:23;0.20;1.00
38860;DHT22;24609;48.316;16.174;2024-02-26T00:04:49;1.70;1.00
38860;DHT22;24609;48.316;16.174;2024-02-26T00:07:15;3.60;1.00
38860;DHT22;24609;48.316;16.174;2024-02-26T00:09:41;4.80;7.60
38860;DHT22;24609;48.316;16.174;2024-02-26T00:12:07;5.50;99.90
38860;DHT22;24609;48.316;16.174;2024-02-26T00:14:33;5.90;99.90
38860;DHT22;24609;48.316;16.174;2024-02-26T00:16:59;6.60;99.90
38860;DHT22;24609;48.316;16.174;2024-02-26T00:19:25;6.90;99.90
38860;DHT22;24609;48.316;16.174;2024-02-26T00:21:51;7.10;99.90
38860;DHT22;24609;48.316;16.174;2024-02-26T00:24:16;7.20;94.60
38860;DHT22;24609;48.316;16.174;2024-02-26T00:26:42;7.30;1.00
38860;DHT22;24609;48.316;16.174;2024-02-26T00:29:08;7.60;99.90
38860;DHT22;24609;48.316;16.174;2024-02-26T00:31:33;7.70;1.00
38860;DHT22;24609;48.316;16.174;2024-02-26T00:33:59;7.70;99.90
38860;DHT22;24609;48.316;16.174;2024-02-26T00:36:25;7.80;1.00
38860;DHT22;24609;48.316;16.174;2024-02-26T00:38:50;7.70;1.20
38860;DHT22;24609;48.316;16.174;2024-02-26T00:41:22;7.60;99.90
38860;DHT22;24609;48.316;16.174;2024-02-26T00:43:48;7.60;97.40
38860;DHT22;24609;48.316;16.174;2024-02-26T00:46:14;7.50;99.90
38860;DHT22;24609;48.316;16.174;2024-02-26T00:48:40;7.60;1.00
38860;DHT22;24609;48.316;16.174;2024-02-26T00:51:05;7.70;99.90
38860;DHT22;24609;48.316;16.174;2024-02-26T00:53:32;7.60;1.00
38860;DHT22;24609;48.316;16.174;2024-02-26T00:55:57;7.60;1.00
38860;DHT22;24609;48.316;16.174;2024-02-26T00:58:27;7.80;99.90
38860;DHT22;24609;48.316;16.174;2024-02-26T01:00:53;7.80;99.90
38860;DHT22;24609;48.316;16.174;2024-02-26T01:03:19;7.90;99.90
38860;DHT22;24609;48.316;16.174;2024-02-26T01:05:45;7.90;1.00
38860;DHT22;24609;48.316;16.174;2024-02-26T01:08:11;7.80;99.90
38860;DHT22;24609;48.316;16.174;2024-02-26T01:10:36;7.90;47.00
38860;DHT22;24609;48.316;16.174;2024-02-26T01:13:02;7.80;1.00
38860;DHT22;24609;48.316;16.174;2024-02-26T01:15:28;7.70;99.90
38860;DHT22;24609;48.316;16.174;2024-02-26T01:17:54;7.60;99.90
38860;DHT22;24609;48.316;16.174;2024-02-26T01:20:19;7.40;99.90
38860;DHT22;24609;48.316;16.174;2024-02-26T01:22:45;7.30;1.00
38860;DHT22;24609;48.316;16.174;2024-02-26T01:25:13;5.50;99.90
38860;DHT22;24609;48.316;16.174;2024-02-26T01:27:38;3.80;99.90
38860;DHT22;24609;48.316;16.174;2024-02-26T01:30:07;3.00;99.90
38860;DHT22;24609;48.316;16.174;2024-02-26T01:32:33;2.40;99.90
38860;DHT22;24609;48.316;16.174;2024-02-26T01:34:58;1.90;99.90
38860;DHT22;24609;48.316;16.174;2024-02-26T01:37:24;1.60;1.00
38860;DHT22;24609;48.316;16.174;2024-02-26T01:39:50;1.30;55.40
38860;DHT22;24609;48.316;16.174;2024-02-26T01:42:15;1.10;99.90
38860;DHT22;24609;48.316;16.174;2024-02-26T01:44:41;0.90;99.90
38860;DHT22;24609;48.316;16.174;2024-02-26T01:47:10;0.80;99.90
38860;DHT22;24609;48.316;16.174;2024-02-26T01:49:37;0.70;1.00
38860;DHT22;24609;48.316;16.174;2024-02-26T01:52:04;0.50;99.90
38860;DHT22;24609;48.316;16.174;2024-02-26T01:54:31;0.50;1.00
38860;DHT22;24609;48.316;16.174;2024-02-26T01:56:59;0.30;1.00
38860;DHT22;24609;48.316;16.174;2024-02-26T01:59:25;0.20;1.00
38860;DHT22;24609;48.316;16.174;2024-02-26T02:01:54;0.10;1.00
38860;DHT22;24609;48.316;16.174;2024-02-26T02:04:21;-0.10;1.00
38860;DHT22;24609;48.316;16.174;2024-02-26T02:06:48;-0.20;1.00
38860;DHT22;24609;48.316;16.174;2024-02-26T02:09:14;-0.20;1.00
38860;DHT22;24609;48.316;16.174;2024-02-26T02:11:40;-0.30;1.00
38860;DHT22;24609;48.316;16.174;2024-02-26T02:14:06;-0.30;1.00
38860;DHT22;24609;48.316;16.174;2024-02-26T02:16:31;-0.40;1.00
38860;DHT22;24609;48.316;16.174;2024-02-26T02:18:58;-0.50;1.00
38860;DHT22;24609;48.316;16.174;2024-02-26T02:21:24;-0.50;1.00
38860;DHT22;24609;48.316;16.174;2024-02-26T02:23:49;-0.60;1.00
38860;DHT22;24609;48.316;16.174;2024-02-26T02:26:16;-0.50;1.00
38860;DHT22;24609;48.316;16.174;2024-02-26T02:28:42;-0.70;1.00
38860;DHT22;24609;48.316;16.174;2024-02-26T02:31:08;-0.60;1.00
38860;DHT22;24609;48.316;16.174;2024-02-26T02:33:36;-0.60;1.00
38860;DHT22;24609;48.316;16.174;2024-02-26T02:36:02;-0.70;1.00
38860;DHT22;24609;48.316;16.174;2024-02-26T02:38:28;-0.70;10.90
38860;DHT22;24609;48.316;16.174;2024-02-26T02:40:55;-0.70;16.40
38860;DHT22;24609;48.316;16.174;2024-02-26T02:43:21;-0.80;14.80
38860;DHT22;24609;48.316;16.174;2024-02-26T02:45:47;-0.90;10.70
38860;DHT22;24609;48.316;16.174;2024-02-26T02:48:12;-1.00;11.30
38860;DHT22;24609;48.316;16.174;2024-02-26T02:50:38;-1.00;13.40
38860;DHT22;24609;48.316;16.174;2024-02-26T02:53:04;-1.10;17.80
38860;DHT22;24609;48.316;16.174;2024-02-26T02:55:30;-1.10;24.40
38860;DHT22;24609;48.316;16.174;2024-02-26T02:57:56;-1.10;33.00
38860;DHT22;24609;48.316;16.174;2024-02-26T03:00:21;-1.10;43.20
38860;DHT22;24609;48.316;16.174;2024-02-26T03:02:49;-1.10;47.10
38860;DHT22;24609;48.316;16.174;2024-02-26T03:05:15;-1.10;49.20
38860;DHT22;24609;48.316;16.174;2024-02-26T03:07:40;-1.10;53.00
38860;DHT22;24609;48.316;16.174;2024-02-26T03:10:06;-1.20;52.70
38860;DHT22;24609;48.316;16.174;2024-02-26T03:12:33;-1.20;55.40
38860;DHT22;24609;48.316;16.174;2024-02-26T03:15:00;-1.20;61.40
38860;DHT22;24609;48.316;16.174;2024-02-26T03:17:28;-1.20;65.20
38860;DHT22;24609;48.316;16.174;2024-02-26T03:19:54;-1.20;67.80
38860;DHT22;24609;48.316;16.174;2024-02-26T03:22:20;-1.20;71.00
38860;DHT22;24609;48.316;16.174;2024-02-26T03:24:46;-1.20;76.10
38860;DHT22;24609;48.316;16.174;2024-02-26T03:27:12;-1.10;80.10
38860;DHT22;24609;48.316;16.174;2024-02-26T03:29:38;-1.10;85.10
38860;DHT22;24609;48.316;16.174;2024-02-26T03:32:05;-1.10;86.00
38860;DHT22;24609;48.316;16.174;2024-02-26T03:34:31;-1.10;85.50
38860;DHT22;24609;48.316;16.174;2024-02-26T03:37:00;-1.20;83.40
38860;DHT22;24609;48.316;16.174;2024-02-26T03:39:25;-1.30;74.60
38860;DHT22;24609;48.316;16.174;2024-02-26T03:41:51;-1.30;68.20
38860;DHT22;24609;48.316;16.174;2024-02-26T03:44:16;-1.30;66.00
38860;DHT22;24609;48.316;16.174;2024-02-26T03:46:42;-1.30;70.00
38860;DHT22;24609;48.316;16.174;2024-02-26T03:49:08;-1.40;72.70
38860;DHT22;24609;48.316;16.174;2024-02-26T03:51:34;-1.30;77.30
38860;DHT22;24609;48.316;16.174;2024-02-26T03:54:00;-1.30;77.40
38860;DHT22;24609;48.316;16.174;2024-02-26T03:56:26;-1.30;78.20
38860;DHT22;24609;48.316;16.174;2024-02-26T03:58:53;-1.30;84.00
38860;DHT22;24609;48.316;16.174;2024-02-26T04:01:18;-1.20;86.30
38860;DHT22;24609;48.316;16.174;2024-02-26T04:03:44;-1.20;87.30
38860;DHT22;24609;48.316;16.174;2024-02-26T04:06:10;-1.20;89.20
38860;DHT22;24609;48.316;16.174;2024-02-26T04:08:37;-1.20;89.40
38860;DHT22;24609;48.316;16.174;2024-02-26T04:11:03;-1.30;87.60
38860;DHT22;24609;48.316;16.174;2024-02-26T04:13:36;-1.30;84.40
38860;DHT22;24609;48.316;16.174;2024-02-26T04:16:04;-1.40;82.80
38860;DHT22;24609;48.316;16.174;2024-02-26T04:18:31;-1.40;83.20
38860;DHT22;24609;48.316;16.174;2024-02-26T04:20:57;-1.40;84.60
38860;DHT22;24609;48.316;16.174;2024-02-26T04:23:23;-1.40;85.80
38860;DHT22;24609;48.316;16.174;2024-02-26T04:25:49;-1.40;85.10
38860;DHT22;24609;48.316;16.174;2024-02-26T04:28:14;-1.50;85.10
38860;DHT22;24609;48.316;16.174;2024-02-26T04:30:41;-1.40;85.30
38860;DHT22;24609;48.316;16.174;2024-02-26T04:33:06;-1.50;83.70
38860;DHT22;24609;48.316;16.174;2024-02-26T04:35:33;-1.50;82.20
38860;DHT22;24609;48.316;16.174;2024-02-26T04:38:01;-1.50;84.10
38860;DHT22;24609;48.316;16.174;2024-02-26T04:40:26;-1.50;86.00
38860;DHT22;24609;48.316;16.174;2024-02-26T04:42:52;-1.40;88.10
38860;DHT22;24609;48.316;16.174;2024-02-26T04:45:17;-1.40;89.40
38860;DHT22;24609;48.316;16.174;2024-02-26T04:47:43;-1.30;90.70
38860;DHT22;24609;48.316;16.174;2024-02-26T04:50:09;-1.30;91.00
38860;DHT22;24609;48.316;16.174;2024-02-26T04:52:35;-1.30;92.30
38860;DHT22;24609;48.316;16.174;2024-02-26T04:55:01;-1.30;92.50
38860;DHT22;24609;48.316;16.174;2024-02-26T04:57:28;-1.30;92.80
38860;DHT22;24609;48.316;16.174;2024-02-26T04:59:53;-1.30;92.70
38860;DHT22;24609;48.316;16.174;2024-02-26T05:02:19;-1.30;93.00
38860;DHT22;24609;48.316;16.174;2024-02-26T05:04:45;-1.20;93.50
38860;DHT22;24609;48.316;16.174;2024-02-26T05:07:10;-1.30;93.90
38860;DHT22;24609;48.316;16.174;2024-02-26T05:09:37;-1.20;94.60
38860;DHT22;24609;48.316;16.174;2024-02-26T05:12:03;-1.20;95.30
38860;DHT22;24609;48.316;16.174;2024-02-26T05:14:29;-1.20;95.70
38860;DHT22;24609;48.316;16.174;2024-02-26T05:16:55;-1.20;95.30
38860;DHT22;24609;48.316;16.174;2024-02-26T05:19:21;-1.20;95.30
38860;DHT22;24609;48.316;16.174;2024-02-26T05:21:47;-1.20;95.00
38860;DHT22;24609;48.316;16.174;2024-02-26T05:24:14;-1.20;94.80
38860;DHT22;24609;48.316;16.174;2024-02-26T05:26:43;-1.20;94.90
38860;DHT22;24609;48.316;16.174;2024-02-26T05:29:09;-1.20;94.50
38860;DHT22;24609;48.316;16.174;2024-02-26T05:31:34;-1.30;94.30
38860;DHT22;24609;48.316;16.174;2024-02-26T05:34:00;-1.20;95.00
38860;DHT22;24609;48.316;16.174;2024-02-26T05:36:26;-1.20;95.60
38860;DHT22;24609;48.316;16.174;2024-02-26T05:38:54;-1.10;96.60
38860;DHT22;24609;48.316;16.174;2024-02-26T05:41:20;-1.20;96.30
38860;DHT22;24609;48.316;16.174;2024-02-26T05:43:51;-1.20;96.70
38860;DHT22;24609;48.316;16.174;2024-02-26T05:46:17;-1.10;97.30
38860;DHT22;24609;48.316;16.174;2024-02-26T05:48:45;-1.00;98.50
38860;DHT22;24609;48.316;16.174;2024-02-26T05:51:11;-1.00;99.00
38860;DHT22;24609;48.316;16.174;2024-02-26T05:53:37;-1.00;99.80
38860;DHT22;24609;48.316;16.174;2024-02-26T05:56:02;-0.90;99.90
38860;DHT22;24609;48.316;16.174;2024-02-26T05:58:29;-0.80;99.90
38860;DHT22;24609;48.316;16.174;2024-02-26T06:00:54;-0.80;99.90
38860;DHT22;24609;48.316;16.174;2024-02-26T06:03:20;-0.70;99.90
38860;DHT22;24609;48.316;16.174;2024-02-26T06:05:46;-0.50;99.90
38860;DHT22;24609;48.316;16.174;2024-02-26T06:08:12;-0.50;99.90
38860;DHT22;24609;48.316;16.174;2024-02-26T06:10:37;-0.40;99.90
38860;DHT22;24609;48.316;16.174;2024-02-26T06:13:04;-0.40;99.90
38860;DHT22;24609;48.316;16.174;2024-02-26T06:15:30;-0.30;99.90
38860;DHT22;24609;48.316;16.174;2024-02-26T06:17:56;-0.20;99.90
38860;DHT22;24609;48.316;16.174;2024-02-26T06:20:21;-0.20;99.90
38860;DHT22;24609;48.316;16.174;2024-02-26T06:22:47;-0.10;99.90
38860;DHT22;24609;48.316;16.174;2024-02-26T06:25:13;0.00;99.90
38860;DHT22;24609;48.316;16.174;2024-02-26T06:27:38;0.10;99.90
38860;DHT22;24609;48.316;16.174;2024-02-26T06:30:05;0.20;99.90
38860;DHT22;24609;48.316;16.174;2024-02-26T06:32:30;0.30;99.90
38860;DHT22;24609;48.316;16.174;2024-02-26T06:34:56;0.50;99.90
38860;DHT22;24609;48.316;16.174;2024-02-26T06:37:22;0.60;99.90
38860;DHT22;24609;48.316;16.174;2024-02-26T06:39:48;0.60;99.90
38860;DHT22;24609;48.316;16.174;2024-02-26T06:42:13;0.60;98.80
38860;DHT22;24609;48.316;16.174;2024-02-26T06:44:39;0.80;98.80
38860;DHT22;24609;48.316;16.174;2024-02-26T06:47:05;0.90;96.40
38860;DHT22;24609;48.316;16.174;2024-02-26T06:49:31;1.00;91.60
38860;DHT22;24609;48.316;16.174;2024-02-26T06:51:57;1.10;81.10
38860;DHT22;24609;48.316;16.174;2024-02-26T06:54:22;1.20;70.70
38860;DHT22;24609;48.316;16.174;2024-02-26T06:56:48;1.40;85.10
38860;DHT22;24609;48.316;16.174;2024-02-26T06:59:14;1.40;39.50
38860;DHT22;24609;48.316;16.174;2024-02-26T07:54:24;4.70;99.90
38860;DHT22;24609;48.316;16.174;2024-02-26T07:56:50;5.30;99.90
38860;DHT22;24609;48.316;16.174;2024-02-26T07:59:16;5.80;1.00
38860;DHT22;24609;48.316;16.174;2024-02-26T08:01:41;6.30;18.20
38860;DHT22;24609;48.316;16.174;2024-02-26T08:04:07;5.90;7.20
38860;DHT22;24609;48.316;16.174;2024-02-26T08:06:33;5.70;99.90
38860;DHT22;24609;48.316;16.174;2024-02-26T08:08:58;6.60;99.90
38860;DHT22;24609;48.316;16.174;2024-02-26T08:11:24;6.80;99.90
38860;DHT22;24609;48.316;16.174;2024-02-26T08:13:50;7.10;40.80
38860;DHT22;24609;48.316;16.174;2024-02-26T08:16:15;7.40;1.00
38860;DHT22;24609;48.316;16.174;2024-02-26T08:18:41;7.40;1.00
38860;DHT22;24609;48.316;16.174;2024-02-26T08:21:07;7.20;1.00
38860;DHT22;24609;48.316;16.174;2024-02-26T08:23:34;8.00;1.00
38860;DHT22;24609;48.316;16.174;2024-02-26T08:25:59;7.80;99.90
38860;DHT22;24609;48.316;16.174;2024-02-26T08:28:25;7.70;99.90
38860;DHT22;24609;48.316;16.174;2024-02-26T08:30:50;8.90;99.90
38860;DHT22;24609;48.316;16.174;2024-02-26T08:33:16;8.70;99.90
38860;DHT22;24609;48.316;16.174;2024-02-26T08:35:42;9.00;1.00
38860;DHT22;24609;48.316;16.174;2024-02-26T08:38:07;9.00;99.90
38860;DHT22;24609;48.316;16.174;2024-02-26T08:40:33;9.30;99.90
38860;DHT22;24609;48.316;16.174;2024-02-26T08:42:59;10.10;99.90
38860;DHT22;24609;48.316;16.174;2024-02-26T08:45:24;9.80;99.90
38860;DHT22;24609;48.316;16.174;2024-02-26T08:47:52;9.50;99.90
38860;DHT22;24609;48.316;16.174;2024-02-26T08:50:18;9.90;99.90
38860;DHT22;24609;48.316;16.174;2024-02-26T08:52:43;10.60;99.90
38860;DHT22;24609;48.316;16.174;2024-02-26T08:55:11;11.00;1.00
38860;DHT22;24609;48.316;16.174;2024-02-26T08:57:38;10.30;1.00
38860;DHT22;24609;48.316;16.174;2024-02-26T09:00:05;12.30;1.00
38860;DHT22;24609;48.316;16.174;2024-02-26T09:02:31;11.70;1.00
38860;DHT22;24609;48.316;16.174;2024-02-26T09:04:56;11.40;1.00
38860;DHT22;24609;48.316;16.174;2024-02-26T09:07:22;12.40;1.00
38860;DHT22;24609;48.316;16.174;2024-02-26T09:09:48;13.40;99.90
38860;DHT22;24609;48.316;16.174;2024-02-26T09:12:13;12.30;1.00
38860;DHT22;24609;48.316;16.174;2024-02-26T09:14:39;12.40;1.00
38860;DHT22;24609;48.316;16.174;2024-02-26T09:17:05;11.80;1.00
38860;DHT22;24609;48.316;16.174;2024-02-26T09:19:33;12.00;99.90
38860;DHT22;24609;48.316;16.174;2024-02-26T09:21:58;12.40;1.00
38860;DHT22;24609;48.316;16.174;2024-02-26T09:24:24;12.40;1.00
38860;DHT22;24609;48.316;16.174;2024-02-26T09:26:50;11.70;1.00
38860;DHT22;24609;48.316;16.174;2024-02-26T09:29:16;12.20;1.00
38860;DHT22;24609;48.316;16.174;2024-02-26T09:31:42;13.70;1.00
38860;DHT22;24609;48.316;16.174;2024-02-26T09:34:09;14.30;99.90
38860;DHT22;24609;48.316;16.174;2024-02-26T09:36:34;14.30;99.90
38860;DHT22;24609;48.316;16.174;2024-02-26T09:39:00;15.50;99.90
38860;DHT22;24609;48.316;16.174;2024-02-26T09:41:31;15.50;99.90
38860;DHT22;24609;48.316;16.174;2024-02-26T09:43:57;16.00;99.90
38860;DHT22;24609;48.316;16.174;2024-02-26T09:49:04;14.10;99.90
38860;DHT22;24609;48.316;16.174;2024-02-26T09:51:31;14.80;99.90
38860;DHT22;24609;48.316;16.174;2024-02-26T09:53:59;16.10;99.90
38860;DHT22;24609;48.316;16.174;2024-02-26T09:56:26;15.00;99.90
38860;DHT22;24609;48.316;16.174;2024-02-26T09:58:54;15.20;99.90
38860;DHT22;24609;48.316;16.174;2024-02-26T10:01:21;15.70;99.90
38860;DHT22;24609;48.316;16.174;2024-02-26T10:03:54;15.70;99.90
38860;DHT22;24609;48.316;16.174;2024-02-26T10:06:21;16.10;99.90
38860;DHT22;24609;48.316;16.174;2024-02-26T10:08:47;18.80;99.90
38860;DHT22;24609;48.316;16.174;2024-02-26T10:11:14;20.10;99.90
38860;DHT22;24609;48.316;16.174;2024-02-26T10:13:40;21.10;99.90
38860;DHT22;24609;48.316;16.174;2024-02-26T10:16:07;18.90;99.90
38860;DHT22;24609;48.316;16.174;2024-02-26T10:18:52;19.60;99.90
38860;DHT22;24609;48.316;16.174;2024-02-26T10:21:22;19.20;99.90
38860;DHT22;24609;48.316;16.174;2024-02-26T10:23:49;19.50;99.90
38860;DHT22;24609;48.316;16.174;2024-02-26T10:26:16;19.30;99.90
38860;DHT22;24609;48.316;16.174;2024-02-26T10:28:43;18.20;99.90
38860;DHT22;24609;48.316;16.174;2024-02-26T10:31:09;19.00;99.90
38860;DHT22;24609;48.316;16.174;2024-02-26T10:33:39;21.00;99.90
38860;DHT22;24609;48.316;16.174;2024-02-26T10:36:05;21.80;99.90
38860;DHT22;24609;48.316;16.174;2024-02-26T10:38:33;22.40;99.90
38860;DHT22;24609;48.316;16.174;2024-02-26T10:40:58;20.70;99.90
38860;DHT22;24609;48.316;16.174;2024-02-26T10:43:27;20.10;99.90
38860;DHT22;24609;48.316;16.174;2024-02-26T10:45:55;20.80;99.90
38860;DHT22;24609;48.316;16.174;2024-02-26T10:48:21;21.20;99.90
38860;DHT22;24609;48.316;16.174;2024-02-26T10:50:47;20.60;99.90
38860;DHT22;24609;48.316;16.174;2024-02-26T10:53:18;21.70;99.90
38860;DHT22;24609;48.316;16.174;2024-02-26T10:55:49;20.50;99.90
38860;DHT22;24609;48.316;16.174;2024-02-26T10:58:18;20.20;99.90
38860;DHT22;24609;48.316;16.174;2024-02-26T11:00:45;20.00;99.90
38860;DHT22;24609;48.316;16.174;2024-02-26T11:03:13;21.30;99.90
38860;DHT22;24609;48.316;16.174;2024-02-26T11:05:43;23.40;99.90
38860;DHT22;24609;48.316;16.174;2024-02-26T11:08:11;23.50;99.90
38860;DHT22;24609;48.316;16.174;2024-02-26T11:10:37;21.00;99.90
38860;DHT22;24609;48.316;16.174;2024-02-26T11:13:05;20.60;99.90
38860;DHT22;24609;48.316;16.174;2024-02-26T11:15:32;19.80;99.90
38860;DHT22;24609;48.316;16.174;2024-02-26T11:17:59;19.70;99.90
38860;DHT22;24609;48.316;16.174;2024-02-26T11:20:28;20.80;99.90
38860;DHT22;24609;48.316;16.174;2024-02-26T11:22:55;21.80;99.90
38860;DHT22;24609;48.316;16.174;2024-02-26T11:25:21;19.30;99.90
38860;DHT22;24609;48.316;16.174;2024-02-26T11:27:58;19.10;99.90
38860;DHT22;24609;48.316;16.174;2024-02-26T11:30:25;20.80;99.90
38860;DHT22;24609;48.316;16.174;2024-02-26T11:32:52;22.90;99.90
38860;DHT22;24609;48.316;16.174;2024-02-26T11:35:19;22.50;99.90
38860;DHT22;24609;48.316;16.174;2024-02-26T11:37:54;24.80;99.90
38860;DHT22;24609;48.316;16.174;2024-02-26T11:40:25;23.50;99.90
38860;DHT22;24609;48.316;16.174;2024-02-26T11:42:51;22.50;99.90
38860;DHT22;24609;48.316;16.174;2024-02-26T11:48:15;19.50;99.90
38860;DHT22;24609;48.316;16.174;2024-02-26T11:50:47;21.00;99.90
38860;DHT22;24609;48.316;16.174;2024-02-26T11:53:30;21.70;99.90
38860;DHT22;24609;48.316;16.174;2024-02-26T11:58:59;22.20;99.90
38860;DHT22;24609;48.316;16.174;2024-02-26T12:01:47;20.50;99.90
38860;DHT22;24609;48.316;16.174;2024-02-26T12:04:26;19.30;99.90
38860;DHT22;24609;48.316;16.174;2024-02-26T12:06:57;18.30;99.90
38860;DHT22;24609;48.316;16.174;2024-02-26T12:09:38;17.70;99.90
38860;DHT22;24609;48.316;16.174;2024-02-26T12:12:06;17.70;99.90
38860;DHT22;24609;48.316;16.174;2024-02-26T12:14:40;18.30;99.90
38860;DHT22;24609;48.316;16.174;2024-02-26T12:17:20;19.50;99.90
38860;DHT22;24609;48.316;16.174;2024-02-26T12:19:46;21.50;99.90
38860;DHT22;24609;48.316;16.174;2024-02-26T12:22:15;20.40;99.90
38860;DHT22;24609;48.316;16.174;2024-02-26T12:24:42;19.50;99.90
38860;DHT22;24609;48.316;16.174;2024-02-26T12:27:08;18.40;99.90
38860;DHT22;24609;48.316;16.174;2024-02-26T12:29:33;17.70;99.90
38860;DHT22;24609;48.316;16.174;2024-02-26T12:31:59;16.90;99.90
38860;DHT22;24609;48.316;16.174;2024-02-26T12:34:25;15.80;99.90
38860;DHT22;24609;48.316;16.174;2024-02-26T12:36:54;15.60;99.90
38860;DHT22;24609;48.316;16.174;2024-02-26T12:39:20;15.60;99.90
38860;DHT22;24609;48.316;16.174;2024-02-26T12:41:46;16.00;99.90
38860;DHT22;24609;48.316;16.174;2024-02-26T12:44:15;16.00;99.90
38860;DHT22;24609;48.316;16.174;2024-02-26T12:46:41;16.30;99.90
38860;DHT22;24609;48.316;16.174;2024-02-26T12:49:07;16.60;99.90
38860;DHT22;24609;48.316;16.174;2024-02-26T12:51:33;15.70;99.90
38860;DHT22;24609;48.316;16.174;2024-02-26T12:53:59;15.40;99.90
38860;DHT22;24609;48.316;16.174;2024-02-26T12:56:26;15.30;99.90
38860;DHT22;24609;48.316;16.174;2024-02-26T12:58:53;15.50;99.90
38860;DHT22;24609;48.316;16.174;2024-02-26T13:01:23;15.60;99.90
38860;DHT22;24609;48.316;16.174;2024-02-26T13:03:50;15.50;99.90
38860;DHT22;24609;48.316;16.174;2024-02-26T13:06:17;15.50;99.90
38860;DHT22;24609;48.316;16.174;2024-02-26T13:08:43;15.60;99.90
38860;DHT22;24609;48.316;16.174;2024-02-26T13:11:09;15.50;99.90
38860;DHT22;24609;48.316;16.174;2024-02-26T13:13:35;15.20;99.90
38860;DHT22;24609;48.316;16.174;2024-02-26T13:16:10;15.00;99.90
38860;DHT22;24609;48.316;16.174;2024-02-26T13:18:35;15.00;99.90
38860;DHT22;24609;48.316;16.174;2024-02-26T13:21:11;14.90;99.90
38860;DHT22;24609;48.316;16.174;2024-02-26T13:23:39;14.90;99.90
38860;DHT22;24609;48.316;16.174;2024-02-26T13:26:05;14.90;99.90
38860;DHT22;24609;48.316;16.174;2024-02-26T13:28:31;14.90;99.90
38860;DHT22;24609;48.316;16.174;2024-02-26T13:30:58;14.80;99.90
38860;DHT22;24609;48.316;16.174;2024-02-26T13:33:25;15.00;99.90
38860;DHT22;24609;48.316;16.174;2024-02-26T13:35:52;14.90;99.90
38860;DHT22;24609;48.316;16.174;2024-02-26T13:38:18;14.90;99.90
38860;DHT22;24609;48.316;16.174;2024-02-26T13:40:44;14.60;99.90
38860;DHT22;24609;48.316;16.174;2024-02-26T13:43:09;14.40;99.90
38860;DHT22;24609;48.316;16.174;2024-02-26T13:45:37;14.30;99.90
38860;DHT22;24609;48.316;16.174;2024-02-26T13:48:05;14.30;99.90
38860;DHT22;24609;48.316;16.174;2024-02-26T13:50:31;14.30;99.90
38860;DHT22;24609;48.316;16.174;2024-02-26T13:52:56;14.30;99.90
38860;DHT22;24609;48.316;16.174;2024-02-26T13:55:25;14.20;99.90
38860;DHT22;24609;48.316;16.174;2024-02-26T13:57:55;14.10;99.90
38860;DHT22;24609;48.316;16.174;2024-02-26T14:00:22;14.10;99.90
38860;DHT22;24609;48.316;16.174;2024-02-26T14:02:48;14.10;99.90
38860;DHT22;24609;48.316;16.174;2024-02-26T14:05:14;14.00;99.90
38860;DHT22;24609;48.316;16.174;2024-02-26T14:07:40;14.00;99.90
38860;DHT22;24609;48.316;16.174;2024-02-26T14:10:06;14.00;99.90
38860;DHT22;24609;48.316;16.174;2024-02-26T14:12:32;14.10;99.90
38860;DHT22;24609;48.316;16.174;2024-02-26T14:14:58;14.20;99.90
38860;DHT22;24609;48.316;16.174;2024-02-26T14:17:26;14.30;99.90
38860;DHT22;24609;48.316;16.174;2024-02-26T14:19:52;14.30;99.90
38860;DHT22;24609;48.316;16.174;2024-02-26T14:22:18;14.40;99.90
38860;DHT22;24609;48.316;16.174;2024-02-26T14:24:43;14.30;99.90
38860;DHT22;24609;48.316;16.174;2024-02-26T14:27:12;14.20;99.90
38860;DHT22;24609;48.316;16.174;2024-02-26T14:29:42;14.20;99.90
38860;DHT22;24609;48.316;16.174;2024-02-26T14:32:09;14.00;99.90
38860;DHT22;24609;48.316;16.174;2024-02-26T14:34:35;13.90;99.90
38860;DHT22;24609;48.316;16.174;2024-02-26T14:37:01;13.70;99.90
38860;DHT22;24609;48.316;16.174;2024-02-26T14:39:27;13.70;99.90
38860;DHT22;24609;48.316;16.174;2024-02-26T14:41:53;13.60;99.90
38860;DHT22;24609;48.316;16.174;2024-02-26T14:44:18;13.60;99.90
38860;DHT22;24609;48.316;16.174;2024-02-26T14:46:44;13.60;99.90
38860;DHT22;24609;48.316;16.174;2024-02-26T14:49:09;13.70;99.90
38860;DHT22;24609;48.316;16.174;2024-02-26T14:51:37;13.70;99.90
38860;DHT22;24609;48.316;16.174;2024-02-26T14:54:03;13.60;99.90
38860;DHT22;24609;48.316;16.174;2024-02-26T14:56:28;13.60;99.90
38860;DHT22;24609;48.316;16.174;2024-02-26T14:58:54;13.50;99.90
38860;DHT22;24609;48.316;16.174;2024-02-26T15:01:20;13.40;99.90
38860;DHT22;24609;48.316;16.174;2024-02-26T15:03:45;13.30;99.90
38860;DHT22;24609;48.316;16.174;2024-02-26T15:06:11;13.20;99.90
38860;DHT22;24609;48.316;16.174;2024-02-26T15:08:37;13.10;99.90
38860;DHT22;24609;48.316;16.174;2024-02-26T15:11:03;13.00;99.90
38860;DHT22;24609;48.316;16.174;2024-02-26T15:13:29;13.00;99.90
38860;DHT22;24609;48.316;16.174;2024-02-26T15:15:54;13.00;99.90
38860;DHT22;24609;48.316;16.174;2024-02-26T15:18:20;13.00;99.90
38860;DHT22;24609;48.316;16.174;2024-02-26T15:20:46;13.00;99.90
38860;DHT22;24609;48.316;16.174;2024-02-26T15:23:12;12.90;99.90
38860;DHT22;24609;48.316;16.174;2024-02-26T15:25:38;13.00;99.90
38860;DHT22;24609;48.316;16.174;2024-02-26T15:28:04;12.90;99.90
38860;DHT22;24609;48.316;16.174;2024-02-26T15:30:31;12.90;99.90
38860;DHT22;24609;48.316;16.174;2024-02-26T15:32:58;12.90;99.90
38860;DHT22;24609;48.316;16.174;2024-02-26T15:35:25;12.80;99.90
38860;DHT22;24609;48.316;16.174;2024-02-26T15:37:51;12.70;99.90
38860;DHT22;24609;48.316;16.174;2024-02-26T15:40:18;12.60;99.90
38860;DHT22;24609;48.316;16.174;2024-02-26T15:42:45;12.70;99.90
38860;DHT22;24609;48.316;16.174;2024-02-26T15:45:10;12.60;99.90
38860;DHT22;24609;48.316;16.174;2024-02-26T15:47:36;12.50;99.90
38860;DHT22;24609;48.316;16.174;2024-02-26T15:50:02;12.50;99.90
38860;DHT22;24609;48.316;16.174;2024-02-26T15:52:28;12.50;99.90
38860;DHT22;24609;48.316;16.174;2024-02-26T15:54:55;12.50;99.90
38860;DHT22;24609;48.316;16.174;2024-02-26T15:57:21;12.50;99.90
38860;DHT22;24609;48.316;16.174;2024-02-26T15:59:46;12.50;99.90
38860;DHT22;24609;48.316;16.174;2024-02-26T16:02:18;12.50;99.90
38860;DHT22;24609;48.316;16.174;2024-02-26T16:04:46;12.40;99.90
38860;DHT22;24609;48.316;16.174;2024-02-26T16:07:29;12.40;99.90
38860;DHT22;24609;48.316;16.174;2024-02-26T16:09:56;12.40;99.90
38860;DHT22;24609;48.316;16.174;2024-02-26T16:12:37;12.30;99.90
38860;DHT22;24609;48.316;16.174;2024-02-26T16:15:04;12.40;99.90
38860;DHT22;24609;48.316;16.174;2024-02-26T16:17:35;12.30;99.90
38860;DHT22;24609;48.316;16.174;2024-02-26T16:20:03;12.30;99.90
38860;DHT22;24609;48.316;16.174;2024-02-26T16:22:34;12.30;99.90